createdAt,value
2019-03-18T00:00:03.910Z,99.99
2019-03-18T00:11:05.588Z,95.67
2019-03-18T00:22:04.778Z,92.93
2019-03-18T00:33:09.335Z,91.25
2019-03-18T00:44:10.214Z,88.30
2019-03-18T00:55:12.477Z,87.32
2019-03-18T01:06:12.474Z,86.31
2019-03-18T01:17:14.656Z,87.51
2019-03-18T01:28:15.846Z,87.85
2019-03-18T01:39:15.368Z,86.47
2019-03-18T01:50:10.606Z,86.06
2019-03-18T02:01:09.515Z,87.59
2019-03-18T02:12:12.261Z,98.56
2019-03-18T02:23:12.803Z,99.99
2019-03-18T02:34:17.108Z,99.99
2019-03-18T02:45:13.555Z,99.99
2019-03-18T02:56:09.541Z,99.99
2019-03-18T03:07:09.286Z,99.99
2019-03-18T03:18:09.876Z,99.99
2019-03-18T03:29:14.211Z,99.99
2019-03-18T03:40:10.722Z,99.99
2019-03-18T03:51:08.400Z,99.99
2019-03-18T04:02:08.123Z,99.99
2019-03-18T04:13:05.592Z,99.99
2019-03-18T04:24:06.989Z,99.99
2019-03-18T04:35:06.334Z,99.99
2019-03-18T04:46:04.273Z,99.99
2019-03-18T04:57:07.741Z,99.99
2019-03-18T05:08:07.939Z,99.99
2019-03-18T05:19:05.638Z,99.99
2019-03-18T05:30:05.049Z,99.99
2019-03-18T05:41:09.335Z,99.99
2019-03-18T05:52:11.139Z,99.99
2019-03-18T06:03:10.296Z,99.99
2019-03-18T06:14:12.688Z,99.99
2019-03-18T06:25:14.515Z,99.99
2019-03-18T06:36:17.371Z,99.99
2019-03-18T06:47:16.825Z,99.99
2019-03-18T06:58:21.034Z,99.99
2019-03-18T07:09:25.398Z,99.99
2019-03-18T07:20:26.865Z,99.99
2019-03-18T07:31:28.654Z,99.99
2019-03-18T07:42:26.123Z,99.99
2019-03-18T07:53:23.858Z,99.99
2019-03-18T08:04:36.791Z,99.69
2019-03-18T08:15:28.849Z,99.99
2019-03-18T08:26:27.327Z,99.33
2019-03-18T08:37:30.721Z,98.11
2019-03-18T08:48:30.330Z,97.39
2019-03-18T08:59:30.771Z,97.04
2019-03-18T09:10:31.001Z,94.93
2019-03-18T09:21:26.471Z,95.87
2019-03-18T09:32:30.409Z,95.87
2019-03-18T09:43:32.445Z,96.53
2019-03-18T09:54:28.834Z,96.99
2019-03-18T10:05:22.913Z,99.99
2019-03-18T10:16:17.923Z,98.16
2019-03-18T10:27:20.219Z,99.45
2019-03-18T10:38:19.819Z,97.77
2019-03-18T10:49:18.424Z,95.37
2019-03-18T11:00:22.386Z,95.98
2019-03-18T11:11:22.776Z,99.99
2019-03-18T11:22:24.037Z,99.99
2019-03-18T11:33:24.887Z,99.99
2019-03-18T11:44:27.710Z,99.99
2019-03-18T11:55:30.764Z,99.99
2019-03-18T12:06:29.115Z,99.99
2019-03-18T12:17:28.625Z,99.99
2019-03-18T12:28:31.682Z,99.99
2019-03-18T12:39:36.314Z,99.99
2019-03-18T12:50:54.515Z,99.99
2019-03-18T13:01:44.914Z,99.99
2019-03-18T13:12:42.175Z,99.99
2019-03-18T13:23:39.765Z,99.99
2019-03-18T13:34:39.545Z,99.99
2019-03-18T13:45:54.369Z,99.99
2019-03-18T13:56:47.994Z,99.99
2019-03-18T14:08:00.388Z,99.99
2019-03-18T14:19:01.138Z,99.99
2019-03-18T14:30:04.347Z,99.99
2019-03-18T14:41:07.862Z,99.99
2019-03-18T14:52:03.027Z,99.99
2019-03-18T15:03:01.243Z,99.99
2019-03-18T15:14:00.687Z,99.99
2019-03-18T15:24:52.866Z,99.99
2019-03-18T15:35:55.099Z,99.99
2019-03-18T15:46:54.473Z,99.99
2019-03-18T15:57:57.629Z,99.99
2019-03-18T16:08:55.015Z,99.99
2019-03-18T16:19:49.364Z,99.99
2019-03-18T16:30:50.842Z,99.99
2019-03-18T16:41:50.308Z,99.99
2019-03-18T16:52:51.001Z,99.99
2019-03-18T17:03:55.969Z,99.99
2019-03-18T17:14:54.185Z,99.99
2019-03-18T17:25:53.993Z,99.99
2019-03-18T17:36:52.944Z,99.99
2019-03-18T17:47:54.244Z,99.99
2019-03-18T17:58:55.248Z,99.99
2019-03-18T18:09:57.652Z,99.99
2019-03-18T18:20:54.743Z,99.99
2019-03-18T18:31:52.784Z,99.99
2019-03-18T18:42:50.507Z,99.99
2019-03-18T18:53:47.837Z,99.99
2019-03-18T19:04:48.309Z,99.99
2019-03-18T19:15:45.679Z,99.99
2019-03-18T19:26:44.323Z,99.99
2019-03-18T19:37:43.355Z,99.99
2019-03-18T19:48:36.790Z,99.99
2019-03-18T19:59:37.634Z,99.99
2019-03-18T20:10:33.693Z,99.99
2019-03-18T20:21:32.157Z,99.99
2019-03-18T20:32:30.311Z,99.99
2019-03-18T20:43:22.564Z,99.99
2019-03-18T20:54:19.998Z,99.99
2019-03-18T21:05:15.134Z,99.99
2019-03-18T21:16:09.825Z,99.99
2019-03-18T21:27:09.763Z,99.99
2019-03-18T21:38:09.451Z,99.99
2019-03-18T21:49:05.641Z,99.99
2019-03-18T21:59:58.842Z,99.99
2019-03-18T22:10:56.396Z,99.99
2019-03-18T22:21:55.858Z,99.99
2019-03-18T22:32:51.276Z,99.99
2019-03-18T22:43:51.096Z,99.99
2019-03-18T22:54:55.843Z,99.99
2019-03-18T23:05:59.110Z,99.99
2019-03-18T23:16:54.938Z,99.99
2019-03-18T23:27:58.939Z,99.99
2019-03-18T23:38:57.886Z,99.99
2019-03-18T23:49:56.178Z,99.99
